sensor_id;sensor_type;location;lat;lon;timestamp;pressure;altitude;pressure_sealevel;temperature;humidity
71151;BME280;59071;42.138;24.768;2023-12-07T00:01:40;99356.78;;;5.52;95.78
71151;BME280;59071;42.138;24.768;2023-12-07T00:04:05;99364.16;;;5.41;96.26
71151;BME280;59071;42.138;24.768;2023-12-07T00:06:31;99362.50;;;5.40;96.40
71151;BME280;59071;42.138;24.768;2023-12-07T00:08:56;99362.63;;;5.47;95.70
71151;BME280;59071;42.138;24.768;2023-12-07T00:11:23;99360.16;;;5.45;95.99
71151;BME280;59071;42.138;24.768;2023-12-07T00:13:48;99361.78;;;5.32;96.07
71151;BME280;59071;42.138;24.768;2023-12-07T00:16:14;99360.34;;;5.44;96.14
71151;BME280;59071;42.138;24.768;2023-12-07T00:18:39;99364.50;;;5.38;95.41
71151;BME280;59071;42.138;24.768;2023-12-07T00:21:07;99366.97;;;5.40;95.17
71151;BME280;59071;42.138;24.768;2023-12-07T00:23:33;99359.06;;;5.40;95.12
71151;BME280;59071;42.138;24.768;2023-12-07T00:25:58;99352.53;;;5.51;94.94
71151;BME280;59071;42.138;24.768;2023-12-07T00:28:24;99345.47;;;5.28;95.37
71151;BME280;59071;42.138;24.768;2023-12-07T00:30:49;99348.59;;;5.32;96.42
71151;BME280;59071;42.138;24.768;2023-12-07T00:33:14;99343.88;;;5.57;93.98
71151;BME280;59071;42.138;24.768;2023-12-07T00:35:42;99346.41;;;5.50;93.91
71151;BME280;59071;42.138;24.768;2023-12-07T00:38:07;99359.91;;;5.55;93.37
71151;BME280;59071;42.138;24.768;2023-12-07T00:40:33;99358.56;;;5.74;91.14
71151;BME280;59071;42.138;24.768;2023-12-07T00:43:02;99357.81;;;5.51;91.80
71151;BME280;59071;42.138;24.768;2023-12-07T00:45:27;99366.16;;;5.39;92.67
71151;BME280;59071;42.138;24.768;2023-12-07T00:47:53;99368.69;;;5.33;92.83
71151;BME280;59071;42.138;24.768;2023-12-07T00:50:18;99359.63;;;5.12;94.21
71151;BME280;59071;42.138;24.768;2023-12-07T00:52:43;99370.00;;;5.14;95.78
71151;BME280;59071;42.138;24.768;2023-12-07T00:55:09;99366.69;;;5.35;95.07
71151;BME280;59071;42.138;24.768;2023-12-07T00:57:34;99355.94;;;5.36;95.16
71151;BME280;59071;42.138;24.768;2023-12-07T00:59:59;99355.53;;;5.62;94.59
71151;BME280;59071;42.138;24.768;2023-12-07T01:02:25;99348.53;;;5.55;94.21
71151;BME280;59071;42.138;24.768;2023-12-07T01:04:50;99351.66;;;5.73;92.07
71151;BME280;59071;42.138;24.768;2023-12-07T01:07:15;99355.38;;;5.64;91.51
71151;BME280;59071;42.138;24.768;2023-12-07T01:09:41;99360.28;;;5.67;92.28
71151;BME280;59071;42.138;24.768;2023-12-07T01:12:07;99353.81;;;5.55;92.84
71151;BME280;59071;42.138;24.768;2023-12-07T01:14:32;99356.34;;;5.48;92.96
71151;BME280;59071;42.138;24.768;2023-12-07T01:16:57;99355.47;;;5.33;93.31
71151;BME280;59071;42.138;24.768;2023-12-07T01:19:23;99343.50;;;5.45;93.42
71151;BME280;59071;42.138;24.768;2023-12-07T01:21:50;99352.16;;;5.54;93.42
71151;BME280;59071;42.138;24.768;2023-12-07T01:24:15;99351.00;;;5.56;93.03
71151;BME280;59071;42.138;24.768;2023-12-07T01:26:41;99353.63;;;5.56;93.60
71151;BME280;59071;42.138;24.768;2023-12-07T01:29:06;99348.53;;;5.55;96.49
71151;BME280;59071;42.138;24.768;2023-12-07T01:31:31;99348.28;;;6.09;95.16
71151;BME280;59071;42.138;24.768;2023-12-07T01:33:57;99355.09;;;6.18;93.63
71151;BME280;59071;42.138;24.768;2023-12-07T01:36:22;99352.66;;;5.87;94.73
71151;BME280;59071;42.138;24.768;2023-12-07T01:38:48;99351.72;;;5.65;95.63
71151;BME280;59071;42.138;24.768;2023-12-07T01:41:13;99357.44;;;5.54;96.71
71151;BME280;59071;42.138;24.768;2023-12-07T01:43:44;99360.00;;;5.92;95.65
71151;BME280;59071;42.138;24.768;2023-12-07T01:46:10;99360.72;;;5.71;93.51
71151;BME280;59071;42.138;24.768;2023-12-07T01:48:36;99355.72;;;5.61;96.61
71151;BME280;59071;42.138;24.768;2023-12-07T01:51:01;99353.53;;;5.49;96.92
71151;BME280;59071;42.138;24.768;2023-12-07T01:53:28;99357.63;;;5.67;94.75
71151;BME280;59071;42.138;24.768;2023-12-07T01:55:53;99345.63;;;5.64;93.37
71151;BME280;59071;42.138;24.768;2023-12-07T01:58:19;99352.72;;;5.49;93.11
71151;BME280;59071;42.138;24.768;2023-12-07T02:00:46;99349.91;;;5.51;92.88
71151;BME280;59071;42.138;24.768;2023-12-07T02:03:12;99349.50;;;5.54;92.79
71151;BME280;59071;42.138;24.768;2023-12-07T02:05:42;99354.78;;;5.54;92.21
71151;BME280;59071;42.138;24.768;2023-12-07T02:08:08;99350.16;;;5.71;92.09
71151;BME280;59071;42.138;24.768;2023-12-07T02:10:34;99342.53;;;5.61;91.88
71151;BME280;59071;42.138;24.768;2023-12-07T02:13:00;99354.47;;;5.72;92.20
71151;BME280;59071;42.138;24.768;2023-12-07T02:15:25;99360.28;;;5.52;92.67
71151;BME280;59071;42.138;24.768;2023-12-07T02:18:46;99362.03;;;5.37;93.79
71151;BME280;59071;42.138;24.768;2023-12-07T02:20:55;99364.50;;;5.38;95.75
71151;BME280;59071;42.138;24.768;2023-12-07T02:23:24;99370.72;;;5.45;95.49
71151;BME280;59071;42.138;24.768;2023-12-07T02:25:54;99359.59;;;5.35;94.55
71151;BME280;59071;42.138;24.768;2023-12-07T02:28:20;99350.47;;;5.23;96.55
71151;BME280;59071;42.138;24.768;2023-12-07T02:30:45;99345.75;;;5.18;96.44
71151;BME280;59071;42.138;24.768;2023-12-07T02:33:11;99349.81;;;5.21;96.37
71151;BME280;59071;42.138;24.768;2023-12-07T02:35:39;99349.47;;;5.24;97.02
71151;BME280;59071;42.138;24.768;2023-12-07T02:38:07;99346.28;;;5.28;97.34
71151;BME280;59071;42.138;24.768;2023-12-07T02:40:33;99352.84;;;5.33;97.61
71151;BME280;59071;42.138;24.768;2023-12-07T02:43:00;99354.69;;;5.32;97.16
71151;BME280;59071;42.138;24.768;2023-12-07T02:45:26;99356.75;;;5.37;96.84
71151;BME280;59071;42.138;24.768;2023-12-07T02:47:53;99344.88;;;5.56;95.71
71151;BME280;59071;42.138;24.768;2023-12-07T02:50:18;99350.91;;;5.79;95.56
71151;BME280;59071;42.138;24.768;2023-12-07T02:52:43;99350.88;;;5.49;95.34
71151;BME280;59071;42.138;24.768;2023-12-07T02:55:09;99344.88;;;5.41;96.35
71151;BME280;59071;42.138;24.768;2023-12-07T02:57:35;99351.69;;;5.35;96.66
71151;BME280;59071;42.138;24.768;2023-12-07T03:00:01;99331.47;;;5.27;97.14
71151;BME280;59071;42.138;24.768;2023-12-07T03:02:33;99343.59;;;5.52;96.00
71151;BME280;59071;42.138;24.768;2023-12-07T03:04:58;99344.25;;;5.68;95.81
71151;BME280;59071;42.138;24.768;2023-12-07T03:07:23;99355.44;;;5.71;94.96
71151;BME280;59071;42.138;24.768;2023-12-07T03:09:49;99348.34;;;5.71;96.69
71151;BME280;59071;42.138;24.768;2023-12-07T03:12:14;99355.19;;;5.80;95.82
71151;BME280;59071;42.138;24.768;2023-12-07T03:14:39;99360.72;;;5.71;95.82
71151;BME280;59071;42.138;24.768;2023-12-07T03:17:05;99356.16;;;5.49;95.37
71151;BME280;59071;42.138;24.768;2023-12-07T03:19:30;99364.88;;;5.50;95.89
71151;BME280;59071;42.138;24.768;2023-12-07T03:21:55;99353.53;;;5.64;94.95
71151;BME280;59071;42.138;24.768;2023-12-07T03:24:21;99360.59;;;5.34;94.16
71151;BME280;59071;42.138;24.768;2023-12-07T03:26:46;99351.06;;;5.33;94.51
71151;BME280;59071;42.138;24.768;2023-12-07T03:29:11;99353.19;;;5.15;95.33
71151;BME280;59071;42.138;24.768;2023-12-07T03:31:37;99354.47;;;4.96;95.43
71151;BME280;59071;42.138;24.768;2023-12-07T03:34:02;99344.97;;;5.09;94.76
71151;BME280;59071;42.138;24.768;2023-12-07T03:36:28;99351.53;;;5.14;95.74
71151;BME280;59071;42.138;24.768;2023-12-07T03:38:54;99355.69;;;5.08;95.37
71151;BME280;59071;42.138;24.768;2023-12-07T03:41:19;99354.00;;;5.15;94.60
71151;BME280;59071;42.138;24.768;2023-12-07T03:43:44;99351.59;;;5.05;94.57
71151;BME280;59071;42.138;24.768;2023-12-07T03:46:10;99350.03;;;4.96;94.81
71151;BME280;59071;42.138;24.768;2023-12-07T03:48:35;99341.16;;;4.89;95.30
71151;BME280;59071;42.138;24.768;2023-12-07T03:51:01;99349.91;;;4.89;96.02
71151;BME280;59071;42.138;24.768;2023-12-07T03:53:27;99354.00;;;4.92;99.16
71151;BME280;59071;42.138;24.768;2023-12-07T03:55:52;99344.22;;;5.01;98.12
71151;BME280;59071;42.138;24.768;2023-12-07T03:58:18;99342.91;;;4.97;97.46
71151;BME280;59071;42.138;24.768;2023-12-07T04:00:44;99339.53;;;5.11;96.36
71151;BME280;59071;42.138;24.768;2023-12-07T04:03:10;99337.47;;;4.98;95.64
71151;BME280;59071;42.138;24.768;2023-12-07T04:05:35;99340.28;;;5.20;96.84
71151;BME280;59071;42.138;24.768;2023-12-07T04:08:00;99341.59;;;5.01;95.76
71151;BME280;59071;42.138;24.768;2023-12-07T04:10:26;99337.88;;;4.64;95.54
71151;BME280;59071;42.138;24.768;2023-12-07T04:12:51;99335.88;;;4.74;95.57
71151;BME280;59071;42.138;24.768;2023-12-07T04:15:18;99339.56;;;4.57;94.75
71151;BME280;59071;42.138;24.768;2023-12-07T04:17:44;99322.22;;;4.39;95.57
71151;BME280;59071;42.138;24.768;2023-12-07T04:20:09;99340.13;;;4.52;95.61
71151;BME280;59071;42.138;24.768;2023-12-07T04:22:35;99343.44;;;4.46;96.41
71151;BME280;59071;42.138;24.768;2023-12-07T04:25:00;99348.97;;;4.59;95.59
71151;BME280;59071;42.138;24.768;2023-12-07T04:27:26;99335.66;;;4.53;95.44
71151;BME280;59071;42.138;24.768;2023-12-07T04:29:51;99339.81;;;4.47;95.37
71151;BME280;59071;42.138;24.768;2023-12-07T04:32:16;99339.84;;;4.39;95.77
71151;BME280;59071;42.138;24.768;2023-12-07T04:34:41;99333.63;;;4.31;95.26
71151;BME280;59071;42.138;24.768;2023-12-07T04:37:07;99323.47;;;4.20;95.37
71151;BME280;59071;42.138;24.768;2023-12-07T04:39:32;99341.53;;;4.31;97.73
71151;BME280;59071;42.138;24.768;2023-12-07T04:41:58;99345.66;;;4.34;96.53
71151;BME280;59071;42.138;24.768;2023-12-07T04:44:23;99348.31;;;4.26;97.51
71151;BME280;59071;42.138;24.768;2023-12-07T04:46:50;99340.66;;;4.08;98.26
71151;BME280;59071;42.138;24.768;2023-12-07T04:49:16;99355.84;;;4.37;97.39
71151;BME280;59071;42.138;24.768;2023-12-07T04:51:41;99356.41;;;4.56;97.82
71151;BME280;59071;42.138;24.768;2023-12-07T04:54:11;99355.44;;;4.48;98.37
71151;BME280;59071;42.138;24.768;2023-12-07T04:56:37;99363.34;;;4.48;98.49
71151;BME280;59071;42.138;24.768;2023-12-07T04:59:02;99350.84;;;4.74;95.92
71151;BME280;59071;42.138;24.768;2023-12-07T05:01:28;99355.59;;;4.55;94.48
71151;BME280;59071;42.138;24.768;2023-12-07T05:03:53;99355.56;;;4.24;95.80
71151;BME280;59071;42.138;24.768;2023-12-07T05:06:18;99355.25;;;4.27;96.32
71151;BME280;59071;42.138;24.768;2023-12-07T05:08:44;99359.66;;;4.26;96.43
71151;BME280;59071;42.138;24.768;2023-12-07T05:11:09;99364.28;;;4.24;95.40
71151;BME280;59071;42.138;24.768;2023-12-07T05:13:34;99372.19;;;4.24;94.53
71151;BME280;59071;42.138;24.768;2023-12-07T05:16:00;99374.25;;;4.06;95.66
71151;BME280;59071;42.138;24.768;2023-12-07T05:18:26;99378.38;;;4.00;96.38
71151;BME280;59071;42.138;24.768;2023-12-07T05:20:51;99372.53;;;4.21;95.15
71151;BME280;59071;42.138;24.768;2023-12-07T05:23:16;99373.25;;;4.15;96.04
71151;BME280;59071;42.138;24.768;2023-12-07T05:25:42;99372.53;;;4.21;99.40
71151;BME280;59071;42.138;24.768;2023-12-07T05:28:08;99380.56;;;4.90;97.46
71151;BME280;59071;42.138;24.768;2023-12-07T05:30:34;99392.19;;;5.42;95.98
71151;BME280;59071;42.138;24.768;2023-12-07T05:33:01;99384.41;;;5.94;91.79
71151;BME280;59071;42.138;24.768;2023-12-07T05:35:26;99394.59;;;6.56;93.76
71151;BME280;59071;42.138;24.768;2023-12-07T05:37:52;99399.41;;;6.89;88.47
71151;BME280;59071;42.138;24.768;2023-12-07T05:40:17;99397.78;;;6.67;86.28
71151;BME280;59071;42.138;24.768;2023-12-07T05:42:43;99409.91;;;6.97;85.47
71151;BME280;59071;42.138;24.768;2023-12-07T05:45:09;99404.53;;;6.91;83.48
71151;BME280;59071;42.138;24.768;2023-12-07T05:47:35;99403.25;;;6.65;84.92
71151;BME280;59071;42.138;24.768;2023-12-07T05:50:01;99416.56;;;6.93;83.78
71151;BME280;59071;42.138;24.768;2023-12-07T05:52:28;99422.97;;;6.84;83.97
71151;BME280;59071;42.138;24.768;2023-12-07T05:54:54;99419.59;;;7.12;82.95
71151;BME280;59071;42.138;24.768;2023-12-07T05:57:19;99424.78;;;7.20;83.54
71151;BME280;59071;42.138;24.768;2023-12-07T05:59:44;99432.00;;;7.33;81.86
71151;BME280;59071;42.138;24.768;2023-12-07T06:02:10;99427.03;;;7.44;81.36
71151;BME280;59071;42.138;24.768;2023-12-07T06:04:35;99414.94;;;7.35;81.56
71151;BME280;59071;42.138;24.768;2023-12-07T06:07:00;99424.31;;;5.84;87.69
71151;BME280;59071;42.138;24.768;2023-12-07T06:09:27;99429.19;;;5.34;91.38
71151;BME280;59071;42.138;24.768;2023-12-07T06:11:52;99429.13;;;4.96;94.55
71151;BME280;59071;42.138;24.768;2023-12-07T06:14:18;99423.81;;;5.04;94.72
71151;BME280;59071;42.138;24.768;2023-12-07T06:16:43;99432.47;;;5.74;93.59
71151;BME280;59071;42.138;24.768;2023-12-07T06:19:09;99431.13;;;5.78;92.85
71151;BME280;59071;42.138;24.768;2023-12-07T06:21:34;99427.78;;;5.23;94.91
71151;BME280;59071;42.138;24.768;2023-12-07T06:23:59;99435.13;;;5.36;95.11
71151;BME280;59071;42.138;24.768;2023-12-07T06:26:25;99438.34;;;5.46;95.85
71151;BME280;59071;42.138;24.768;2023-12-07T06:28:51;99433.28;;;6.13;93.99
71151;BME280;59071;42.138;24.768;2023-12-07T06:31:16;99432.56;;;5.66;94.67
71151;BME280;59071;42.138;24.768;2023-12-07T06:33:46;99433.59;;;5.42;94.44
71151;BME280;59071;42.138;24.768;2023-12-07T06:36:18;99440.94;;;5.32;95.30
71151;BME280;59071;42.138;24.768;2023-12-07T06:38:43;99441.28;;;5.28;96.13
71151;BME280;59071;42.138;24.768;2023-12-07T06:41:08;99451.41;;;5.40;96.52
71151;BME280;59071;42.138;24.768;2023-12-07T06:43:34;99441.25;;;5.52;95.82
71151;BME280;59071;42.138;24.768;2023-12-07T06:45:59;99447.19;;;5.54;96.05
71151;BME280;59071;42.138;24.768;2023-12-07T06:48:24;99449.66;;;5.55;95.77
71151;BME280;59071;42.138;24.768;2023-12-07T06:50:50;99456.59;;;5.56;96.75
71151;BME280;59071;42.138;24.768;2023-12-07T06:53:16;99451.88;;;5.66;96.23
71151;BME280;59071;42.138;24.768;2023-12-07T06:55:43;99453.94;;;5.56;96.31
71151;BME280;59071;42.138;24.768;2023-12-07T06:58:08;99456.53;;;5.79;96.90
71151;BME280;59071;42.138;24.768;2023-12-07T07:00:35;99441.84;;;6.15;97.43
71151;BME280;59071;42.138;24.768;2023-12-07T07:03:01;99443.31;;;6.17;95.87
71151;BME280;59071;42.138;24.768;2023-12-07T07:05:26;99442.28;;;6.33;94.62
71151;BME280;59071;42.138;24.768;2023-12-07T07:07:52;99447.59;;;6.33;93.64
71151;BME280;59071;42.138;24.768;2023-12-07T07:10:17;99445.16;;;6.68;92.01
71151;BME280;59071;42.138;24.768;2023-12-07T07:12:43;99454.56;;;7.07;91.28
71151;BME280;59071;42.138;24.768;2023-12-07T07:15:09;99449.91;;;7.09;89.23
71151;BME280;59071;42.138;24.768;2023-12-07T07:17:34;99442.31;;;7.06;87.82
71151;BME280;59071;42.138;24.768;2023-12-07T07:19:59;99456.94;;;6.65;89.04
71151;BME280;59071;42.138;24.768;2023-12-07T07:22:25;99446.88;;;6.76;89.72
71151;BME280;59071;42.138;24.768;2023-12-07T07:24:50;99455.25;;;7.59;88.03
71151;BME280;59071;42.138;24.768;2023-12-07T07:27:15;99458.66;;;7.53;85.73
71151;BME280;59071;42.138;24.768;2023-12-07T07:29:41;99458.06;;;7.29;85.00
71151;BME280;59071;42.138;24.768;2023-12-07T07:32:06;99458.66;;;7.10;84.91
71151;BME280;59071;42.138;24.768;2023-12-07T07:34:32;99458.81;;;6.87;86.53
71151;BME280;59071;42.138;24.768;2023-12-07T07:36:58;99469.56;;;7.21;85.36
71151;BME280;59071;42.138;24.768;2023-12-07T07:39:23;99472.41;;;7.20;87.17
71151;BME280;59071;42.138;24.768;2023-12-07T07:41:49;99470.97;;;7.02;85.98
71151;BME280;59071;42.138;24.768;2023-12-07T07:44:14;99473.06;;;6.85;86.82
71151;BME280;59071;42.138;24.768;2023-12-07T07:46:42;99475.00;;;6.62;88.86
71151;BME280;59071;42.138;24.768;2023-12-07T07:49:08;99477.22;;;6.95;90.68
71151;BME280;59071;42.138;24.768;2023-12-07T07:51:33;99485.53;;;7.71;87.12
71151;BME280;59071;42.138;24.768;2023-12-07T07:53:59;99481.47;;;7.54;86.30
71151;BME280;59071;42.138;24.768;2023-12-07T07:56:25;99479.78;;;7.68;85.83
71151;BME280;59071;42.138;24.768;2023-12-07T07:58:51;99471.06;;;7.74;84.64
71151;BME280;59071;42.138;24.768;2023-12-07T08:01:16;99482.97;;;7.85;84.58
71151;BME280;59071;42.138;24.768;2023-12-07T08:03:42;99487.97;;;8.01;84.77
71151;BME280;59071;42.138;24.768;2023-12-07T08:06:07;99483.53;;;8.71;82.00
71151;BME280;59071;42.138;24.768;2023-12-07T08:08:33;99480.16;;;8.49;80.93
71151;BME280;59071;42.138;24.768;2023-12-07T08:10:59;99483.19;;;8.46;80.28
71151;BME280;59071;42.138;24.768;2023-12-07T08:13:24;99494.59;;;8.12;81.93
71151;BME280;59071;42.138;24.768;2023-12-07T08:15:49;99493.00;;;8.17;82.45
71151;BME280;59071;42.138;24.768;2023-12-07T08:18:15;99493.00;;;8.17;83.51
71151;BME280;59071;42.138;24.768;2023-12-07T08:20:40;99489.50;;;8.80;81.71
71151;BME280;59071;42.138;24.768;2023-12-07T08:23:05;99499.00;;;8.33;82.14
71151;BME280;59071;42.138;24.768;2023-12-07T08:25:31;99487.56;;;8.60;82.59
71151;BME280;59071;42.138;24.768;2023-12-07T08:27:57;99495.50;;;9.15;78.30
71151;BME280;59071;42.138;24.768;2023-12-07T08:30:22;99504.44;;;8.53;81.22
71151;BME280;59071;42.138;24.768;2023-12-07T08:32:48;99496.44;;;8.11;82.83
71151;BME280;59071;42.138;24.768;2023-12-07T08:35:13;99486.53;;;8.55;81.94
71151;BME280;59071;42.138;24.768;2023-12-07T08:37:39;99501.66;;;8.61;81.87
71151;BME280;59071;42.138;24.768;2023-12-07T08:40:06;99502.97;;;8.85;81.48
71151;BME280;59071;42.138;24.768;2023-12-07T08:42:32;99497.84;;;8.77;81.47
71151;BME280;59071;42.138;24.768;2023-12-07T08:44:58;99501.28;;;8.77;81.75
71151;BME280;59071;42.138;24.768;2023-12-07T08:47:23;99502.28;;;8.70;82.40
71151;BME280;59071;42.138;24.768;2023-12-07T08:49:48;99499.22;;;9.34;81.55
71151;BME280;59071;42.138;24.768;2023-12-07T08:52:16;99495.78;;;9.27;80.24
71151;BME280;59071;42.138;24.768;2023-12-07T08:54:43;99493.69;;;9.16;80.97
71151;BME280;59071;42.138;24.768;2023-12-07T08:57:08;99492.44;;;9.12;81.12
71151;BME280;59071;42.138;24.768;2023-12-07T08:59:34;99490.00;;;9.17;81.80
71151;BME280;59071;42.138;24.768;2023-12-07T09:01:59;99487.97;;;9.12;81.74
71151;BME280;59071;42.138;24.768;2023-12-07T09:04:25;99486.44;;;9.85;80.48
71151;BME280;59071;42.138;24.768;2023-12-07T09:06:50;99487.03;;;10.00;77.80
71151;BME280;59071;42.138;24.768;2023-12-07T09:09:16;99485.75;;;10.43;77.06
71151;BME280;59071;42.138;24.768;2023-12-07T09:11:41;99487.38;;;10.50;74.76
71151;BME280;59071;42.138;24.768;2023-12-07T09:14:06;99486.59;;;10.16;76.32
71151;BME280;59071;42.138;24.768;2023-12-07T09:16:32;99492.31;;;10.07;77.72
71151;BME280;59071;42.138;24.768;2023-12-07T09:18:57;99495.47;;;10.75;76.76
71151;BME280;59071;42.138;24.768;2023-12-07T09:21:22;99488.81;;;10.53;75.46
71151;BME280;59071;42.138;24.768;2023-12-07T09:23:48;99490.03;;;10.57;76.07
71151;BME280;59071;42.138;24.768;2023-12-07T09:26:13;99486.22;;;10.91;75.41
71151;BME280;59071;42.138;24.768;2023-12-07T09:28:39;99482.66;;;11.04;73.73
71151;BME280;59071;42.138;24.768;2023-12-07T09:31:05;99465.38;;;11.13;73.45
71151;BME280;59071;42.138;24.768;2023-12-07T09:33:31;99474.72;;;11.61;74.15
71151;BME280;59071;42.138;24.768;2023-12-07T09:35:56;99460.81;;;11.27;72.75
71151;BME280;59071;42.138;24.768;2023-12-07T09:38:22;99465.50;;;10.93;74.38
71151;BME280;59071;42.138;24.768;2023-12-07T09:40:51;99467.94;;;11.33;75.10
71151;BME280;59071;42.138;24.768;2023-12-07T09:43:17;99457.88;;;11.04;72.99
71151;BME280;59071;42.138;24.768;2023-12-07T09:45:44;99468.03;;;11.52;72.91
71151;BME280;59071;42.138;24.768;2023-12-07T09:48:09;99461.72;;;12.40;70.32
71151;BME280;59071;42.138;24.768;2023-12-07T09:50:35;99460.28;;;12.19;67.71
71151;BME280;59071;42.138;24.768;2023-12-07T09:53:01;99447.41;;;12.16;68.48
71151;BME280;59071;42.138;24.768;2023-12-07T09:55:27;99458.09;;;12.35;65.47
71151;BME280;59071;42.138;24.768;2023-12-07T09:57:53;99449.53;;;12.07;66.85
71151;BME280;59071;42.138;24.768;2023-12-07T10:00:22;99457.50;;;12.32;67.26
71151;BME280;59071;42.138;24.768;2023-12-07T10:02:47;99457.13;;;12.29;65.71
71151;BME280;59071;42.138;24.768;2023-12-07T10:05:13;99451.66;;;11.48;67.34
71151;BME280;59071;42.138;24.768;2023-12-07T10:07:46;99455.34;;;11.47;68.99
71151;BME280;59071;42.138;24.768;2023-12-07T10:10:13;99449.84;;;11.42;69.47
71151;BME280;59071;42.138;24.768;2023-12-07T10:12:59;99450.19;;;11.52;69.26
71151;BME280;59071;42.138;24.768;2023-12-07T10:15:24;99449.84;;;12.18;67.51
71151;BME280;59071;42.138;24.768;2023-12-07T10:17:55;99451.56;;;12.30;66.44
71151;BME280;59071;42.138;24.768;2023-12-07T10:20:23;99453.34;;;11.93;67.71
71151;BME280;59071;42.138;24.768;2023-12-07T10:23:08;99450.41;;;11.51;68.62
71151;BME280;59071;42.138;24.768;2023-12-07T10:25:39;99445.34;;;11.11;70.74
71151;BME280;59071;42.138;24.768;2023-12-07T10:28:05;99442.84;;;11.73;69.12
71151;BME280;59071;42.138;24.768;2023-12-07T10:30:33;99439.00;;;11.94;68.08
71151;BME280;59071;42.138;24.768;2023-12-07T10:32:58;99440.31;;;11.78;67.74
71151;BME280;59071;42.138;24.768;2023-12-07T10:35:24;99439.56;;;11.46;69.17
71151;BME280;59071;42.138;24.768;2023-12-07T10:37:50;99443.75;;;11.85;68.16
71151;BME280;59071;42.138;24.768;2023-12-07T10:40:16;99437.19;;;12.50;66.85
71151;BME280;59071;42.138;24.768;2023-12-07T10:42:42;99435.84;;;13.08;64.21
71151;BME280;59071;42.138;24.768;2023-12-07T10:45:14;99438.72;;;13.37;62.86
71151;BME280;59071;42.138;24.768;2023-12-07T10:47:43;99418.97;;;13.49;62.48
71151;BME280;59071;42.138;24.768;2023-12-07T10:50:10;99429.94;;;13.72;61.75
71151;BME280;59071;42.138;24.768;2023-12-07T10:52:48;99432.03;;;14.05;61.28
71151;BME280;59071;42.138;24.768;2023-12-07T10:55:20;99432.97;;;14.22;60.49
71151;BME280;59071;42.138;24.768;2023-12-07T10:57:46;99429.44;;;14.34;60.64
71151;BME280;59071;42.138;24.768;2023-12-07T11:00:12;99431.97;;;14.40;59.79
71151;BME280;59071;42.138;24.768;2023-12-07T11:02:39;99418.72;;;14.45;59.82
71151;BME280;59071;42.138;24.768;2023-12-07T11:05:06;99420.47;;;14.40;59.63
71151;BME280;59071;42.138;24.768;2023-12-07T11:07:45;99416.53;;;14.31;59.84
71151;BME280;59071;42.138;24.768;2023-12-07T11:10:15;99415.31;;;14.91;59.03
71151;BME280;59071;42.138;24.768;2023-12-07T11:13:12;99411.06;;;14.78;58.74
71151;BME280;59071;42.138;24.768;2023-12-07T11:15:42;99400.16;;;14.96;58.83
71151;BME280;59071;42.138;24.768;2023-12-07T11:18:08;99412.88;;;15.18;57.98
71151;BME280;59071;42.138;24.768;2023-12-07T11:20:45;99406.09;;;15.15;58.39
71151;BME280;59071;42.138;24.768;2023-12-07T11:23:12;99406.69;;;14.60;57.91
71151;BME280;59071;42.138;24.768;2023-12-07T11:25:42;99405.44;;;14.62;58.13
71151;BME280;59071;42.138;24.768;2023-12-07T11:28:10;99401.91;;;14.62;58.84
71151;BME280;59071;42.138;24.768;2023-12-07T11:30:36;99398.56;;;14.55;58.56
71151;BME280;59071;42.138;24.768;2023-12-07T11:33:06;99399.13;;;14.69;58.15
71151;BME280;59071;42.138;24.768;2023-12-07T11:35:32;99385.97;;;14.67;57.87
71151;BME280;59071;42.138;24.768;2023-12-07T11:38:06;99387.34;;;14.70;57.69
71151;BME280;59071;42.138;24.768;2023-12-07T11:40:35;99388.81;;;14.77;57.80
71151;BME280;59071;42.138;24.768;2023-12-07T11:43:01;99386.41;;;14.76;57.72
71151;BME280;59071;42.138;24.768;2023-12-07T11:45:47;99383.22;;;14.79;56.92
71151;BME280;59071;42.138;24.768;2023-12-07T11:48:16;99389.78;;;14.71;57.51
71151;BME280;59071;42.138;24.768;2023-12-07T11:53:28;99388.78;;;14.60;56.98
71151;BME280;59071;42.138;24.768;2023-12-07T11:55:55;99396.47;;;14.57;56.98
71151;BME280;59071;42.138;24.768;2023-12-07T11:58:21;99387.84;;;14.55;58.06
71151;BME280;59071;42.138;24.768;2023-12-07T12:00:47;99392.53;;;14.47;58.42
71151;BME280;59071;42.138;24.768;2023-12-07T12:03:13;99382.97;;;14.52;57.62
71151;BME280;59071;42.138;24.768;2023-12-07T12:05:40;99385.56;;;14.35;58.05
71151;BME280;59071;42.138;24.768;2023-12-07T12:08:06;99383.16;;;14.62;57.85
71151;BME280;59071;42.138;24.768;2023-12-07T12:10:31;99371.59;;;14.73;56.53
71151;BME280;59071;42.138;24.768;2023-12-07T12:12:57;99379.41;;;14.75;55.84
71151;BME280;59071;42.138;24.768;2023-12-07T12:15:22;99378.88;;;14.61;55.89
71151;BME280;59071;42.138;24.768;2023-12-07T12:17:48;99370.97;;;14.83;56.08
71151;BME280;59071;42.138;24.768;2023-12-07T12:20:14;99373.03;;;14.93;56.05
71151;BME280;59071;42.138;24.768;2023-12-07T12:22:43;99370.50;;;14.86;55.97
71151;BME280;59071;42.138;24.768;2023-12-07T12:25:08;99366.72;;;14.99;56.11
71151;BME280;59071;42.138;24.768;2023-12-07T12:27:34;99366.53;;;14.89;55.53
71151;BME280;59071;42.138;24.768;2023-12-07T12:30:01;99372.84;;;13.78;58.83
71151;BME280;59071;42.138;24.768;2023-12-07T12:32:27;99367.53;;;13.12;61.59
71151;BME280;59071;42.138;24.768;2023-12-07T12:34:52;99360.97;;;12.84;61.89
71151;BME280;59071;42.138;24.768;2023-12-07T12:37:18;99364.09;;;12.81;63.37
71151;BME280;59071;42.138;24.768;2023-12-07T12:39:43;99362.47;;;13.34;61.47
71151;BME280;59071;42.138;24.768;2023-12-07T12:42:09;99364.88;;;13.24;61.77
71151;BME280;59071;42.138;24.768;2023-12-07T12:44:36;99359.59;;;12.94;63.10
71151;BME280;59071;42.138;24.768;2023-12-07T12:47:06;99359.78;;;12.80;63.24
71151;BME280;59071;42.138;24.768;2023-12-07T12:49:36;99359.38;;;12.65;63.68
71151;BME280;59071;42.138;24.768;2023-12-07T12:52:02;99360.41;;;12.15;66.00
71151;BME280;59071;42.138;24.768;2023-12-07T12:54:31;99363.31;;;12.32;66.74
71151;BME280;59071;42.138;24.768;2023-12-07T12:56:58;99360.91;;;12.73;64.53